createdAt,value
2023-05-25T00:01:24.654Z,98739.06
2023-05-25T00:03:32.200Z,98733.97
2023-05-25T00:05:37.745Z,98730.50
2023-05-25T00:07:43.237Z,98729.34
2023-05-25T00:09:48.271Z,98726.72
2023-05-25T00:11:53.272Z,98723.53
2023-05-25T00:13:58.274Z,98720.13
2023-05-25T00:16:03.212Z,98719.28
2023-05-25T00:18:10.744Z,98718.44
2023-05-25T00:20:16.474Z,98712.69
2023-05-25T00:22:21.415Z,98714.59
2023-05-25T00:24:26.350Z,98707.91
2023-05-25T00:26:31.293Z,98718.22
2023-05-25T00:28:36.357Z,98714.03
2023-05-25T00:30:41.466Z,98710.75
2023-05-25T00:32:46.460Z,98716.78
2023-05-25T00:34:54.009Z,98710.63
2023-05-25T00:36:58.977Z,98712.84
2023-05-25T00:39:05.481Z,98713.16
2023-05-25T00:41:10.488Z,98714.84
2023-05-25T00:43:16.279Z,98707.16
2023-05-25T00:45:21.599Z,98707.16
2023-05-25T00:47:27.647Z,98707.16
2023-05-25T00:49:34.639Z,98704.53
2023-05-25T00:51:42.486Z,98709.00
2023-05-25T00:53:47.462Z,98701.59
2023-05-25T00:55:56.461Z,98696.66
2023-05-25T00:58:04.668Z,98708.03
2023-05-25T01:00:11.938Z,98709.00
2023-05-25T01:02:17.986Z,98708.06
2023-05-25T01:04:28.629Z,98714.88
2023-05-25T01:06:35.222Z,98709.91
2023-05-25T01:08:44.766Z,98713.34
2023-05-25T01:10:52.352Z,98720.03
2023-05-25T01:13:00.180Z,98714.84
2023-05-25T01:15:07.346Z,98708.06
2023-05-25T01:17:14.086Z,98705.34
2023-05-25T01:19:19.040Z,98705.22
2023-05-25T01:21:31.127Z,98706.03
2023-05-25T01:23:39.703Z,98707.72
2023-05-25T01:25:48.643Z,98709.22
2023-05-25T01:27:57.591Z,98709.41
2023-05-25T01:30:03.023Z,98707.03
2023-05-25T01:32:09.292Z,98715.03
2023-05-25T01:34:15.690Z,98709.72
2023-05-25T01:36:21.241Z,98707.81
2023-05-25T01:38:28.721Z,98712.13
2023-05-25T01:40:33.685Z,98711.28
2023-05-25T01:42:39.549Z,98711.41
2023-05-25T01:44:44.759Z,98704.53
2023-05-25T01:46:52.934Z,98707.38
2023-05-25T01:49:10.047Z,98712.72
2023-05-25T01:51:22.499Z,98709.53
2023-05-25T01:53:34.103Z,98719.19
2023-05-25T01:55:42.712Z,98714.75
2023-05-25T01:57:58.144Z,98717.25
2023-05-25T02:00:05.729Z,98712.16
2023-05-25T02:02:20.953Z,98711.47
2023-05-25T02:04:26.441Z,98719.28
2023-05-25T02:06:32.978Z,98723.16
2023-05-25T02:08:46.862Z,98723.16
2023-05-25T02:10:51.844Z,98731.88
2023-05-25T02:12:56.787Z,98725.75
2023-05-25T02:15:01.953Z,98725.97
2023-05-25T02:17:07.767Z,98725.25
2023-05-25T02:19:15.087Z,98718.38
2023-05-25T02:21:20.084Z,98728.97
2023-05-25T02:23:25.071Z,98723.16
2023-05-25T02:25:32.578Z,98711.97
2023-05-25T02:27:38.600Z,98715.66
2023-05-25T02:29:45.811Z,98716.53
2023-05-25T02:31:50.918Z,98716.25
2023-05-25T02:33:56.114Z,98713.44
2023-05-25T02:36:00.868Z,98715.13
2023-05-25T02:38:05.813Z,98715.22
2023-05-25T02:40:12.437Z,98725.63
2023-05-25T02:42:19.996Z,98724.06
2023-05-25T02:44:26.315Z,98730.94
2023-05-25T02:46:31.314Z,98727.38
2023-05-25T02:48:36.258Z,98723.16
2023-05-25T02:50:41.219Z,98722.31
2023-05-25T02:52:50.510Z,98716.28
2023-05-25T02:54:55.213Z,98723.34
2023-05-25T02:57:08.675Z,98719.91
2023-05-25T02:59:16.334Z,98722.41
2023-05-25T03:01:21.531Z,98718.91
2023-05-25T03:03:31.253Z,98725.00
2023-05-25T03:05:37.156Z,98726.06
2023-05-25T03:07:42.273Z,98723.63
2023-05-25T03:09:47.237Z,98719.34
2023-05-25T03:11:52.347Z,98720.16
2023-05-25T03:13:59.824Z,98720.97
2023-05-25T03:16:09.973Z,98730.47
2023-05-25T03:18:15.046Z,98721.94
2023-05-25T03:20:21.767Z,98726.28
2023-05-25T03:22:27.396Z,98729.84
2023-05-25T03:24:32.349Z,98724.69
2023-05-25T03:26:39.822Z,98728.00
2023-05-25T03:28:45.000Z,98738.38
2023-05-25T03:30:50.747Z,98743.63
2023-05-25T03:32:58.864Z,98738.38
2023-05-25T03:35:10.630Z,98747.00
2023-05-25T03:37:16.063Z,98746.19
2023-05-25T03:39:22.346Z,98749.66
2023-05-25T03:41:29.699Z,98753.22
2023-05-25T03:43:35.350Z,98759.38
2023-05-25T03:45:42.101Z,98756.09
2023-05-25T03:47:48.459Z,98766.75
2023-05-25T03:49:56.180Z,98770.16
2023-05-25T03:52:01.693Z,98776.47
2023-05-25T03:54:07.420Z,98774.06
2023-05-25T03:56:12.514Z,98771.69
2023-05-25T03:58:18.694Z,98777.78
2023-05-25T04:00:24.518Z,98780.50
2023-05-25T04:02:29.592Z,98773.56
2023-05-25T04:04:34.803Z,98767.50
2023-05-25T04:06:42.966Z,98773.66
2023-05-25T04:08:48.134Z,98778.03
2023-05-25T04:10:53.307Z,98770.13
2023-05-25T04:13:00.116Z,98774.31
2023-05-25T04:15:09.353Z,98771.56
2023-05-25T04:17:25.678Z,98781.69
2023-05-25T04:19:31.276Z,98782.31
2023-05-25T04:21:36.482Z,98783.09
2023-05-25T04:23:46.121Z,98775.91
2023-05-25T04:25:51.463Z,98775.75
2023-05-25T04:27:56.897Z,98777.34
2023-05-25T04:30:24.773Z,98785.13
2023-05-25T04:32:57.735Z,98783.41
2023-05-25T04:35:10.846Z,98789.31
2023-05-25T04:37:21.814Z,98793.44
2023-05-25T04:39:29.433Z,98793.25
2023-05-25T04:41:35.626Z,98788.13
2023-05-25T04:43:56.866Z,98799.47
2023-05-25T04:46:11.910Z,98790.88
2023-05-25T04:48:16.942Z,98792.72
2023-05-25T04:50:22.073Z,98797.44
2023-05-25T04:52:28.833Z,98799.03
2023-05-25T04:54:37.661Z,98797.00
2023-05-25T04:56:42.923Z,98807.38
2023-05-25T04:58:47.870Z,98800.31
2023-05-25T05:00:53.131Z,98806.69
2023-05-25T05:02:58.060Z,98809.19
2023-05-25T05:05:04.143Z,98809.19
2023-05-25T05:07:09.422Z,98814.22
2023-05-25T05:09:14.673Z,98807.69
2023-05-25T05:11:23.794Z,98810.03
2023-05-25T05:13:29.902Z,98814.13
2023-05-25T05:15:35.377Z,98813.50
2023-05-25T05:17:40.433Z,98827.41
2023-05-25T05:19:46.456Z,98821.13
2023-05-25T05:21:52.520Z,98817.31
2023-05-25T05:23:59.087Z,98816.84
2023-05-25T05:26:05.246Z,98822.53
2023-05-25T05:28:12.914Z,98815.63
2023-05-25T05:30:19.438Z,98823.09
2023-05-25T05:32:24.206Z,98823.97
2023-05-25T05:34:32.010Z,98821.13
2023-05-25T05:36:55.970Z,98819.91
2023-05-25T05:39:03.643Z,98816.22
2023-05-25T05:41:13.587Z,98813.31
2023-05-25T05:43:22.404Z,98827.19
2023-05-25T05:45:27.638Z,98818.00
2023-05-25T05:47:35.377Z,98817.16
2023-05-25T05:49:41.016Z,98823.25
2023-05-25T05:51:46.215Z,98818.31
2023-05-25T05:53:52.300Z,98822.94
2023-05-25T05:55:59.516Z,98825.34
2023-05-25T05:58:04.534Z,98825.59
2023-05-25T06:00:16.377Z,98830.44
2023-05-25T06:02:21.385Z,98828.94
2023-05-25T06:04:29.337Z,98831.63
2023-05-25T06:06:36.113Z,98827.41
2023-05-25T06:08:41.304Z,98829.41
2023-05-25T06:10:46.096Z,98824.91
2023-05-25T06:12:52.576Z,98824.75
2023-05-25T06:14:57.777Z,98828.16
2023-05-25T06:17:05.676Z,98816.66
2023-05-25T06:19:11.019Z,98816.88
2023-05-25T06:21:16.035Z,98814.59
2023-05-25T06:23:21.030Z,98816.09
2023-05-25T06:25:26.043Z,98810.38
2023-05-25T06:27:31.143Z,98813.84
2023-05-25T06:29:35.945Z,98812.91
2023-05-25T06:31:40.915Z,98811.94
2023-05-25T06:33:48.496Z,98817.38
2023-05-25T06:35:58.374Z,98824.59
2023-05-25T06:38:03.692Z,98826.88
2023-05-25T06:40:10.582Z,98822.53
2023-05-25T06:42:15.844Z,98824.72
2023-05-25T06:44:30.434Z,98820.16
2023-05-25T06:46:40.127Z,98828.50
2023-05-25T06:48:49.393Z,98816.56
2023-05-25T06:50:54.460Z,98817.72
2023-05-25T06:53:00.526Z,98826.72
2023-05-25T06:55:06.675Z,98817.72
2023-05-25T06:57:11.635Z,98818.09
2023-05-25T06:59:16.670Z,98827.22
2023-05-25T07:01:22.105Z,98823.66
2023-05-25T07:03:27.135Z,98823.66
2023-05-25T07:05:34.662Z,98809.84
2023-05-25T07:07:39.828Z,98814.69
2023-05-25T07:09:44.553Z,98814.78
2023-05-25T07:11:49.488Z,98824.19
2023-05-25T07:13:54.471Z,98821.41
2023-05-25T07:16:01.066Z,98810.69
2023-05-25T07:18:06.170Z,98812.50
2023-05-25T07:20:13.433Z,98815.81
2023-05-25T07:22:21.797Z,98807.34
2023-05-25T07:24:26.752Z,98796.50
2023-05-25T07:26:32.109Z,98807.34
2023-05-25T07:28:37.341Z,98804.44
2023-05-25T07:30:43.137Z,98807.59
2023-05-25T07:32:48.338Z,98814.56
2023-05-25T07:34:53.310Z,98805.22
2023-05-25T07:36:58.407Z,98809.38
2023-05-25T07:39:06.146Z,98819.22
2023-05-25T07:41:13.629Z,98815.00
2023-05-25T07:43:18.666Z,98814.72
2023-05-25T07:45:23.891Z,98813.88
2023-05-25T07:47:28.915Z,98811.59
2023-05-25T07:49:33.890Z,98809.13
2023-05-25T07:51:38.886Z,98806.94
2023-05-25T07:53:43.820Z,98811.81
2023-05-25T07:55:51.656Z,98812.94
2023-05-25T07:57:56.766Z,98820.13
2023-05-25T08:00:02.181Z,98821.41
2023-05-25T08:02:07.558Z,98824.63
2023-05-25T08:04:13.185Z,98813.56
2023-05-25T08:06:18.308Z,98817.03
2023-05-25T08:08:24.915Z,98819.06
2023-05-25T08:10:32.513Z,98820.88
2023-05-25T08:12:48.943Z,98817.19
2023-05-25T08:14:55.464Z,98823.69
2023-05-25T08:17:00.269Z,98820.13
2023-05-25T08:19:05.340Z,98807.63
2023-05-25T08:21:10.280Z,98813.16
2023-05-25T08:23:15.255Z,98812.78
2023-05-25T08:25:20.301Z,98807.06
2023-05-25T08:27:24.989Z,98815.31
2023-05-25T08:29:32.542Z,98806.50
2023-05-25T08:31:37.743Z,98807.94
2023-05-25T08:33:42.729Z,98797.78
2023-05-25T08:35:50.119Z,98800.41
2023-05-25T08:37:55.115Z,98802.94
2023-05-25T08:40:02.509Z,98803.13
2023-05-25T08:42:09.981Z,98801.53
2023-05-25T08:44:15.668Z,98804.06
2023-05-25T08:46:33.590Z,98797.75
2023-05-25T08:48:42.473Z,98805.09
2023-05-25T08:50:51.937Z,98799.53
2023-05-25T08:53:00.505Z,98807.72
2023-05-25T08:55:07.891Z,98803.19
2023-05-25T08:57:17.877Z,98808.72
2023-05-25T08:59:34.951Z,98803.16
2023-05-25T09:01:48.969Z,98812.34
2023-05-25T09:03:55.360Z,98806.59
2023-05-25T09:06:00.349Z,98806.34
2023-05-25T09:08:06.862Z,98807.28
2023-05-25T09:10:13.811Z,98809.88
2023-05-25T09:12:20.095Z,98805.44
2023-05-25T09:14:25.767Z,98809.03
2023-05-25T09:16:31.891Z,98814.25
2023-05-25T09:18:40.394Z,98810.72
2023-05-25T09:20:47.046Z,98806.69
2023-05-25T09:22:52.755Z,98807.38
2023-05-25T09:24:57.705Z,98809.00
2023-05-25T09:27:03.819Z,98822.91
2023-05-25T09:29:08.737Z,98821.41
2023-05-25T09:31:13.863Z,98803.41
2023-05-25T09:33:19.709Z,98807.38
2023-05-25T09:35:29.173Z,98808.34
2023-05-25T09:37:34.426Z,98809.72
2023-05-25T09:39:39.700Z,98811.19
2023-05-25T09:41:44.680Z,98806.56
2023-05-25T09:45:59.758Z,98800.59
2023-05-25T09:48:04.569Z,98802.75
2023-05-25T09:50:10.979Z,98806.78
2023-05-25T09:52:18.617Z,98811.63
2023-05-25T09:54:25.751Z,98806.56
2023-05-25T09:56:31.037Z,98811.00
2023-05-25T09:58:36.147Z,98810.81
2023-05-25T10:00:43.486Z,98800.03
2023-05-25T10:02:48.715Z,98810.25
2023-05-25T10:04:53.412Z,98807.22
2023-05-25T10:06:59.932Z,98806.91
2023-05-25T10:09:12.117Z,98805.22
2023-05-25T10:11:19.141Z,98806.81
2023-05-25T10:13:25.724Z,98807.88
2023-05-25T10:15:31.164Z,98816.94
2023-05-25T10:17:39.328Z,98817.34
2023-05-25T10:19:49.464Z,98812.31
2023-05-25T10:22:01.589Z,98813.34
2023-05-25T10:24:16.474Z,98814.41
2023-05-25T10:26:23.503Z,98800.66
2023-05-25T10:28:32.539Z,98810.19
2023-05-25T10:30:39.540Z,98808.81
2023-05-25T10:32:47.262Z,98805.84
2023-05-25T10:34:55.282Z,98807.84
2023-05-25T10:37:01.421Z,98801.28
2023-05-25T10:39:10.309Z,98803.09
2023-05-25T10:41:16.196Z,98797.22
2023-05-25T10:43:22.484Z,98795.63
2023-05-25T10:45:30.969Z,98798.50
2023-05-25T10:47:38.119Z,98793.19
2023-05-25T10:49:55.955Z,98793.50
2023-05-25T10:52:01.664Z,98795.69
2023-05-25T10:54:09.588Z,98796.91
2023-05-25T10:56:14.960Z,98789.44
2023-05-25T10:58:22.008Z,98784.06
2023-05-25T11:00:34.524Z,98788.81
2023-05-25T11:02:55.148Z,98792.34
2023-05-25T11:05:30.100Z,98797.31
2023-05-25T11:07:35.389Z,98793.88
2023-05-25T11:09:43.746Z,98783.22
2023-05-25T11:12:04.220Z,98789.22
2023-05-25T11:14:24.095Z,98789.06
2023-05-25T11:16:37.990Z,98783.53
2023-05-25T11:18:46.217Z,98776.25
2023-05-25T11:20:51.664Z,98791.00
2023-05-25T11:22:56.721Z,98781.53
2023-05-25T11:25:19.361Z,98786.81
2023-05-25T11:30:42.353Z,98778.75
2023-05-25T11:32:54.950Z,98781.44
2023-05-25T11:35:10.009Z,98779.06
2023-05-25T11:37:22.313Z,98775.09
2023-05-25T11:39:35.060Z,98775.81
2023-05-25T11:42:25.855Z,98765.47
2023-05-25T11:45:21.898Z,98767.06
2023-05-25T11:47:35.921Z,98764.53
2023-05-25T11:49:50.849Z,98769.00
2023-05-25T11:52:02.515Z,98765.16
2023-05-25T11:54:42.569Z,98769.00
2023-05-25T11:56:52.940Z,98769.97
2023-05-25T11:58:57.962Z,98763.13
2023-05-25T12:01:18.917Z,98771.03
2023-05-25T12:03:39.491Z,98761.03
2023-05-25T12:05:46.047Z,98767.19
2023-05-25T12:07:53.128Z,98758.41
2023-05-25T12:10:15.253Z,98753.47
2023-05-25T12:12:31.632Z,98759.97
2023-05-25T12:14:42.989Z,98754.59
2023-05-25T12:16:54.260Z,98751.84
2023-05-25T12:19:09.004Z,98748.22
2023-05-25T12:21:29.667Z,98745.81
2023-05-25T12:23:38.699Z,98746.16
2023-05-25T12:25:50.717Z,98739.25
2023-05-25T12:28:16.105Z,98738.66
2023-05-25T12:30:35.262Z,98736.59
2023-05-25T12:33:00.263Z,98725.75
2023-05-25T12:35:11.421Z,98732.84
2023-05-25T12:37:27.006Z,98731.56
2023-05-25T12:39:43.515Z,98714.25
2023-05-25T12:42:10.722Z,98724.59
2023-05-25T12:44:36.527Z,98723.75
2023-05-25T12:47:01.159Z,98725.75
2023-05-25T12:49:22.959Z,98719.00
2023-05-25T12:51:41.178Z,98726.31
2023-05-25T12:53:59.019Z,98717.38
2023-05-25T12:56:26.192Z,98711.84
2023-05-25T12:59:01.686Z,98721.81
2023-05-25T13:01:10.070Z,98716.16
2023-05-25T13:03:17.908Z,98718.88
2023-05-25T13:05:48.063Z,98709.31
2023-05-25T13:08:03.184Z,98707.00
2023-05-25T13:10:18.078Z,98703.97
2023-05-25T13:12:26.759Z,98703.31
2023-05-25T13:14:38.433Z,98704.41
2023-05-25T13:17:07.052Z,98702.22
2023-05-25T13:19:14.730Z,98706.94
2023-05-25T13:21:22.248Z,98707.44
2023-05-25T13:23:29.509Z,98705.78
2023-05-25T13:25:34.634Z,98705.81
2023-05-25T13:27:41.494Z,98704.41
2023-05-25T13:29:46.892Z,98702.06
2023-05-25T13:31:51.966Z,98694.25
2023-05-25T13:34:07.404Z,98700.69
2023-05-25T13:36:12.375Z,98700.56
2023-05-25T13:38:18.457Z,98692.22
2023-05-25T13:40:28.741Z,98700.03
2023-05-25T13:42:48.787Z,98693.13
2023-05-25T13:44:53.903Z,98694.97
2023-05-25T13:47:01.599Z,98688.94
2023-05-25T13:49:07.146Z,98687.13
2023-05-25T13:51:12.188Z,98688.78
2023-05-25T13:53:17.158Z,98691.47
2023-05-25T13:55:23.133Z,98678.72
2023-05-25T13:57:33.622Z,98677.19
2023-05-25T13:59:38.552Z,98682.66
2023-05-25T14:01:43.729Z,98678.56
2023-05-25T14:03:51.387Z,98676.06
2023-05-25T14:05:57.000Z,98670.69
2023-05-25T14:08:07.556Z,98674.06
2023-05-25T14:10:18.035Z,98677.66
2023-05-25T14:12:25.250Z,98659.66
2023-05-25T14:14:33.870Z,98663.81
2023-05-25T14:16:39.313Z,98667.97
2023-05-25T14:18:44.275Z,98661.75
2023-05-25T14:20:49.722Z,98669.00
2023-05-25T14:22:54.773Z,98663.00
2023-05-25T14:24:59.920Z,98661.69
2023-05-25T14:27:05.141Z,98656.56
2023-05-25T14:29:13.066Z,98660.22
2023-05-25T14:31:20.745Z,98660.22
2023-05-25T14:33:26.043Z,98657.34
2023-05-25T14:35:30.746Z,98653.25
2023-05-25T14:37:37.537Z,98652.28
2023-05-25T14:39:42.578Z,98658.09
2023-05-25T14:41:49.946Z,98652.16
2023-05-25T14:43:55.869Z,98658.59
2023-05-25T14:46:05.081Z,98650.88
2023-05-25T14:48:16.516Z,98652.50
2023-05-25T14:50:22.248Z,98650.00
2023-05-25T14:52:27.156Z,98649.78
2023-05-25T14:54:32.235Z,98654.28
2023-05-25T14:56:37.576Z,98657.41
2023-05-25T14:58:42.626Z,98644.66
2023-05-25T15:00:47.603Z,98645.31
2023-05-25T15:02:53.059Z,98651.41
2023-05-25T15:05:00.744Z,98646.53
2023-05-25T15:07:05.742Z,98653.84
2023-05-25T15:09:10.770Z,98657.31
2023-05-25T15:11:15.803Z,98653.84
2023-05-25T15:13:22.815Z,98658.56
2023-05-25T15:15:30.710Z,98657.56
2023-05-25T15:17:35.699Z,98648.38
2023-05-25T15:19:40.741Z,98653.31
2023-05-25T15:21:48.362Z,98659.06
2023-05-25T15:23:53.398Z,98654.88
2023-05-25T15:26:04.410Z,98646.47
2023-05-25T15:28:09.615Z,98649.09
2023-05-25T15:30:22.941Z,98642.59
2023-05-25T15:32:30.753Z,98646.81
2023-05-25T15:34:36.856Z,98640.16
2023-05-25T15:36:44.821Z,98640.88
2023-05-25T15:38:52.365Z,98638.09
2023-05-25T15:40:59.670Z,98639.59
2023-05-25T15:43:04.748Z,98641.53
2023-05-25T15:45:11.018Z,98639.75
2023-05-25T15:47:16.046Z,98643.34
2023-05-25T15:49:21.125Z,98642.19
2023-05-25T15:51:26.217Z,98646.28
2023-05-25T15:53:31.204Z,98644.41
2023-05-25T15:55:38.835Z,98646.03
2023-05-25T15:57:43.891Z,98633.56
2023-05-25T15:59:48.821Z,98633.88
2023-05-25T16:01:53.888Z,98637.59
2023-05-25T16:03:59.352Z,98638.25
2023-05-25T16:06:05.020Z,98643.44
2023-05-25T16:08:11.821Z,98640.09
2023-05-25T16:10:26.786Z,98640.41
2023-05-25T16:12:36.487Z,98638.59
2023-05-25T16:14:41.463Z,98634.88
2023-05-25T16:16:46.466Z,98629.38
2023-05-25T16:18:51.912Z,98640.25
2023-05-25T16:21:07.567Z,98639.13
2023-05-25T16:23:12.542Z,98639.28
2023-05-25T16:25:25.069Z,98640.25
2023-05-25T16:27:30.227Z,98638.56
2023-05-25T16:29:39.961Z,98649.00
2023-05-25T16:31:45.032Z,98646.84
2023-05-25T16:33:50.109Z,98643.38
2023-05-25T16:36:01.809Z,98642.16
2023-05-25T16:38:08.253Z,98637.47
2023-05-25T16:40:14.069Z,98640.38
2023-05-25T16:42:20.224Z,98633.00
2023-05-25T16:44:25.241Z,98641.47
2023-05-25T16:46:33.076Z,98638.38
2023-05-25T16:48:38.071Z,98641.31
2023-05-25T16:50:43.144Z,98636.19
2023-05-25T16:52:47.963Z,98635.31
2023-05-25T16:54:52.861Z,98642.31
2023-05-25T16:57:00.547Z,98632.94
2023-05-25T16:59:05.494Z,98639.13
2023-05-25T17:01:11.637Z,98633.22
2023-05-25T17:03:19.422Z,98638.41
2023-05-25T17:05:37.595Z,98632.53
2023-05-25T17:07:42.909Z,98634.63
2023-05-25T17:09:47.866Z,98630.41
2023-05-25T17:11:53.919Z,98634.47
2023-05-25T17:13:59.037Z,98630.09
2023-05-25T17:16:04.028Z,98633.34
2023-05-25T17:18:09.210Z,98634.31
2023-05-25T17:20:17.259Z,98643.22
2023-05-25T17:22:23.447Z,98638.03
2023-05-25T17:24:28.378Z,98636.63
2023-05-25T17:26:33.480Z,98637.44
2023-05-25T17:28:41.564Z,98636.72
2023-05-25T17:30:48.558Z,98638.81
2023-05-25T17:32:54.082Z,98637.97
2023-05-25T17:35:05.068Z,98645.47
2023-05-25T17:37:12.586Z,98639.38
2023-05-25T17:41:27.849Z,98645.91
2023-05-25T17:43:59.015Z,98650.88
2023-05-25T17:46:07.770Z,98655.94
2023-05-25T17:48:12.867Z,98653.44
2023-05-25T17:50:19.730Z,98661.47
2023-05-25T17:52:31.693Z,98665.56
2023-05-25T17:54:37.833Z,98672.22
2023-05-25T17:56:42.744Z,98661.19
2023-05-25T17:58:47.878Z,98670.25
2023-05-25T18:00:53.324Z,98670.97
2023-05-25T18:02:58.829Z,98666.78
2023-05-25T18:05:03.866Z,98663.59
2023-05-25T18:07:08.954Z,98667.59
2023-05-25T18:09:17.082Z,98670.78
2023-05-25T18:11:26.639Z,98667.56
2023-05-25T18:13:32.000Z,98669.25
2023-05-25T18:15:41.564Z,98669.88
2023-05-25T18:18:01.020Z,98674.56
2023-05-25T18:20:06.149Z,98676.66
2023-05-25T18:22:10.874Z,98682.47
2023-05-25T18:24:22.484Z,98683.06
2023-05-25T18:26:29.534Z,98686.19
2023-05-25T18:28:43.975Z,98685.03
2023-05-25T18:30:49.082Z,98686.44
2023-05-25T18:32:53.906Z,98687.44
2023-05-25T18:34:58.954Z,98684.75
2023-05-25T18:37:03.688Z,98692.22
2023-05-25T18:39:08.814Z,98689.31
2023-05-25T18:41:16.898Z,98682.13
2023-05-25T18:43:23.290Z,98697.41
2023-05-25T18:45:28.915Z,98704.13
2023-05-25T18:47:34.099Z,98700.78
2023-05-25T18:49:39.195Z,98701.72
2023-05-25T18:51:43.922Z,98702.94
2023-05-25T18:53:48.835Z,98704.00
2023-05-25T18:55:53.754Z,98702.31
2023-05-25T18:58:01.608Z,98707.00
2023-05-25T19:00:08.910Z,98708.91
2023-05-25T19:02:13.996Z,98711.03
2023-05-25T19:04:18.766Z,98719.34
2023-05-25T19:06:23.915Z,98720.84
2023-05-25T19:08:28.893Z,98720.13
2023-05-25T19:10:33.890Z,98721.91
2023-05-25T19:12:38.832Z,98725.50
2023-05-25T19:14:46.173Z,98727.50
2023-05-25T19:16:51.240Z,98738.03
2023-05-25T19:18:56.348Z,98737.88
2023-05-25T19:21:02.506Z,98741.56
2023-05-25T19:23:07.520Z,98751.09
2023-05-25T19:25:12.512Z,98750.75
2023-05-25T19:27:20.072Z,98755.16
2023-05-25T19:29:25.045Z,98749.97
2023-05-25T19:31:32.617Z,98755.47
2023-05-25T19:33:37.621Z,98755.06
2023-05-25T19:35:42.818Z,98759.63
2023-05-25T19:37:47.854Z,98763.31
2023-05-25T19:39:52.783Z,98766.84
2023-05-25T19:41:58.292Z,98774.47
2023-05-25T19:44:03.364Z,98770.66
2023-05-25T19:46:08.507Z,98774.88
2023-05-25T19:48:15.912Z,98766.78
2023-05-25T19:50:21.033Z,98775.41
2023-05-25T19:52:25.765Z,98770.47
2023-05-25T19:54:31.107Z,98778.81
2023-05-25T19:56:36.206Z,98775.97
2023-05-25T19:58:41.004Z,98782.72
2023-05-25T20:00:46.082Z,98786.22
2023-05-25T20:02:51.134Z,98790.03
2023-05-25T20:04:59.851Z,98788.88
2023-05-25T20:07:04.870Z,98793.06
2023-05-25T20:09:12.711Z,98798.56
2023-05-25T20:11:17.835Z,98795.28
2023-05-25T20:13:22.850Z,98795.28
2023-05-25T20:15:29.465Z,98804.47
2023-05-25T20:17:34.562Z,98800.78
2023-05-25T20:19:39.310Z,98799.84
2023-05-25T20:21:46.893Z,98797.72
2023-05-25T20:23:53.537Z,98801.41
2023-05-25T20:26:00.038Z,98804.34
2023-05-25T20:28:04.992Z,98805.63
2023-05-25T20:30:12.020Z,98812.69
2023-05-25T20:32:18.085Z,98808.88
2023-05-25T20:34:24.264Z,98811.38
2023-05-25T20:36:29.259Z,98808.66
2023-05-25T20:38:36.872Z,98819.22
2023-05-25T20:40:41.856Z,98814.41
2023-05-25T20:42:46.829Z,98819.59
2023-05-25T20:44:51.805Z,98816.63
2023-05-25T20:46:56.915Z,98816.63
2023-05-25T20:49:03.470Z,98827.38
2023-05-25T20:51:08.552Z,98817.09
2023-05-25T20:53:13.665Z,98820.81
2023-05-25T20:55:21.459Z,98824.78
2023-05-25T20:57:26.370Z,98824.34
2023-05-25T20:59:32.046Z,98825.69
2023-05-25T21:01:37.059Z,98827.88
2023-05-25T21:03:42.296Z,98831.84
2023-05-25T21:05:47.815Z,98821.69
2023-05-25T21:07:53.661Z,98825.38
2023-05-25T21:09:59.625Z,98828.31
2023-05-25T21:12:07.807Z,98833.28
2023-05-25T21:14:12.939Z,98837.88
2023-05-25T21:16:17.717Z,98837.44
2023-05-25T21:18:22.704Z,98845.34
2023-05-25T21:20:29.303Z,98847.31
2023-05-25T21:22:34.414Z,98837.63
2023-05-25T21:24:39.339Z,98845.72
2023-05-25T21:26:44.233Z,98843.56
2023-05-25T21:28:51.909Z,98848.09
2023-05-25T21:30:56.893Z,98843.03
2023-05-25T21:33:02.592Z,98851.81
2023-05-25T21:35:07.874Z,98855.41
2023-05-25T21:37:12.538Z,98858.59
2023-05-25T21:39:20.302Z,98854.94
2023-05-25T21:41:26.696Z,98860.94
2023-05-25T21:43:31.464Z,98858.66
2023-05-25T21:45:39.112Z,98873.16
2023-05-25T21:47:44.286Z,98866.22
2023-05-25T21:49:49.325Z,98869.50
2023-05-25T21:51:57.551Z,98874.84
2023-05-25T21:54:03.255Z,98872.19
2023-05-25T21:56:08.209Z,98874.84
2023-05-25T21:58:13.224Z,98873.16
2023-05-25T22:00:19.622Z,98876.81
2023-05-25T22:02:27.228Z,98884.53
2023-05-25T22:04:32.211Z,98880.06
2023-05-25T22:06:37.183Z,98884.66
2023-05-25T22:08:42.048Z,98884.09
2023-05-25T22:10:47.161Z,98900.72
2023-05-25T22:12:53.195Z,98891.31
2023-05-25T22:14:58.207Z,98890.06
2023-05-25T22:17:03.310Z,98896.69
2023-05-25T22:19:10.901Z,98889.22
2023-05-25T22:21:17.005Z,98891.75
2023-05-25T22:23:21.944Z,98890.84
2023-05-25T22:25:27.648Z,98889.88
2023-05-25T22:27:32.666Z,98890.06
2023-05-25T22:29:38.220Z,98887.03
2023-05-25T22:31:43.300Z,98890.59
2023-05-25T22:33:48.224Z,98887.38
2023-05-25T22:35:55.917Z,98890.97
2023-05-25T22:38:00.923Z,98889.25
2023-05-25T22:40:06.033Z,98894.69
2023-05-25T22:42:11.529Z,98903.34
2023-05-25T22:44:16.468Z,98898.19
2023-05-25T22:46:25.567Z,98896.78
2023-05-25T22:48:30.747Z,98902.47
2023-05-25T22:50:35.726Z,98903.53
2023-05-25T22:52:43.528Z,98904.00
2023-05-25T22:54:48.464Z,98898.38
2023-05-25T22:56:53.454Z,98900.81
2023-05-25T22:58:58.895Z,98901.56
2023-05-25T23:01:03.916Z,98897.66
2023-05-25T23:03:08.920Z,98906.84
2023-05-25T23:05:14.010Z,98905.16
2023-05-25T23:07:18.790Z,98905.38
2023-05-25T23:09:26.396Z,98908.78
2023-05-25T23:11:33.501Z,98913.19
2023-05-25T23:13:38.554Z,98913.94
2023-05-25T23:15:44.551Z,98913.09
2023-05-25T23:17:49.855Z,98911.50
2023-05-25T23:19:55.287Z,98914.84
2023-05-25T23:22:00.785Z,98914.78
2023-05-25T23:24:05.754Z,98913.84
2023-05-25T23:26:13.336Z,98908.88
2023-05-25T23:28:18.228Z,98912.56
2023-05-25T23:30:23.685Z,98919.53
2023-05-25T23:32:28.699Z,98916.91
2023-05-25T23:34:33.523Z,98917.06
2023-05-25T23:36:40.849Z,98910.94
2023-05-25T23:38:45.977Z,98912.22
2023-05-25T23:40:50.772Z,98913.25
2023-05-25T23:42:58.829Z,98916.03
2023-05-25T23:45:03.756Z,98918.66
2023-05-25T23:47:09.275Z,98909.94
2023-05-25T23:49:14.191Z,98914.50
2023-05-25T23:51:19.400Z,98916.25
2023-05-25T23:53:24.888Z,98919.81
2023-05-25T23:55:30.047Z,98919.16
2023-05-25T23:57:36.043Z,98923.56
2023-05-25T23:59:46.006Z,98918.31
